createdAt,value
2023-03-17T00:01:54.687Z,20.13
2023-03-17T00:04:24.501Z,20.42
2023-03-17T00:06:52.914Z,20.67
2023-03-17T00:09:22.442Z,18.38
2023-03-17T00:11:50.189Z,17.42
2023-03-17T00:14:19.950Z,24.63
2023-03-17T00:16:52.825Z,23.33
2023-03-17T00:19:33.288Z,17.30
2023-03-17T00:22:01.680Z,17.42
2023-03-17T00:24:30.046Z,17.80
2023-03-17T00:26:57.486Z,24.92
2023-03-17T00:29:25.577Z,19.88
2023-03-17T00:31:53.660Z,17.00
2023-03-17T00:34:23.499Z,21.17
2023-03-17T00:36:52.397Z,24.95
2023-03-17T00:39:19.983Z,15.90
2023-03-17T00:41:50.355Z,23.63
2023-03-17T00:44:18.670Z,18.58
2023-03-17T00:46:46.600Z,14.32
2023-03-17T00:49:21.378Z,13.52
2023-03-17T00:51:49.897Z,15.48
2023-03-17T00:54:19.566Z,12.93
2023-03-17T00:56:48.523Z,19.30
2023-03-17T00:59:26.168Z,13.20
2023-03-17T01:01:54.104Z,15.93
2023-03-17T01:04:21.834Z,13.18
2023-03-17T01:06:50.560Z,17.77
2023-03-17T01:09:20.911Z,12.63
2023-03-17T01:11:49.280Z,14.30
2023-03-17T01:14:17.054Z,15.45
2023-03-17T01:16:44.904Z,15.43
2023-03-17T01:19:13.813Z,13.52
2023-03-17T01:21:42.603Z,15.57
2023-03-17T01:24:10.828Z,14.60
2023-03-17T01:26:39.085Z,18.85
2023-03-17T01:29:08.023Z,16.80
2023-03-17T01:31:35.550Z,15.40
2023-03-17T01:34:04.430Z,17.20
2023-03-17T01:36:31.702Z,16.52
2023-03-17T01:38:59.599Z,17.90
2023-03-17T01:41:26.917Z,20.17
2023-03-17T01:43:54.456Z,17.00
2023-03-17T01:46:34.225Z,19.42
2023-03-17T01:49:17.492Z,19.42
2023-03-17T01:51:54.618Z,18.20
2023-03-17T01:54:43.369Z,14.98
2023-03-17T01:57:18.629Z,16.20
2023-03-17T01:59:55.529Z,19.42
2023-03-17T02:02:31.032Z,21.60
2023-03-17T02:04:59.289Z,20.55
2023-03-17T02:07:27.659Z,16.55
2023-03-17T02:09:57.369Z,20.05
2023-03-17T02:12:25.861Z,17.50
2023-03-17T02:14:53.532Z,21.40
2023-03-17T02:17:23.778Z,25.15
2023-03-17T02:19:51.937Z,20.80
2023-03-17T02:22:19.978Z,22.77
2023-03-17T02:24:58.578Z,21.15
2023-03-17T02:27:39.613Z,26.25
2023-03-17T02:30:10.992Z,23.00
2023-03-17T02:32:38.886Z,19.40
2023-03-17T02:35:08.898Z,17.63
2023-03-17T02:37:38.500Z,18.42
2023-03-17T02:40:07.795Z,23.77
2023-03-17T02:42:35.777Z,19.25
2023-03-17T02:45:03.493Z,21.67
2023-03-17T02:47:30.805Z,24.08
2023-03-17T02:49:58.925Z,18.92
2023-03-17T02:52:26.424Z,19.60
2023-03-17T02:54:53.893Z,23.83
2023-03-17T02:57:21.543Z,22.23
2023-03-17T02:59:49.201Z,27.10
2023-03-17T03:02:16.966Z,23.45
2023-03-17T03:04:44.557Z,23.90
2023-03-17T03:07:12.367Z,26.52
2023-03-17T03:09:40.078Z,26.90
2023-03-17T03:12:10.123Z,22.50
2023-03-17T03:14:37.797Z,24.17
2023-03-17T03:17:05.491Z,32.25
2023-03-17T03:19:33.063Z,22.05
2023-03-17T03:22:00.350Z,26.77
2023-03-17T03:24:28.048Z,18.33
2023-03-17T03:26:55.280Z,22.45
2023-03-17T03:29:23.078Z,21.35
2023-03-17T03:31:51.039Z,22.67
2023-03-17T03:34:18.831Z,21.48
2023-03-17T03:36:46.086Z,20.48
2023-03-17T03:39:14.547Z,19.17
2023-03-17T03:41:42.415Z,20.23
2023-03-17T03:44:10.091Z,21.63
2023-03-17T03:46:37.346Z,23.77
2023-03-17T03:49:05.145Z,17.27
2023-03-17T03:51:32.350Z,20.73
2023-03-17T03:54:01.330Z,21.25
2023-03-17T03:56:28.619Z,22.55
2023-03-17T03:58:57.223Z,22.10
2023-03-17T04:01:24.823Z,23.92
2023-03-17T04:03:52.288Z,30.65
2023-03-17T04:06:19.536Z,18.52
2023-03-17T04:08:47.132Z,23.67
2023-03-17T04:11:14.395Z,21.10
2023-03-17T04:13:42.045Z,17.77
2023-03-17T04:16:09.416Z,22.45
2023-03-17T04:18:37.090Z,26.38
2023-03-17T04:21:04.532Z,25.13
2023-03-17T04:23:32.144Z,29.77
2023-03-17T04:25:59.366Z,25.33
2023-03-17T04:28:26.972Z,28.08
2023-03-17T04:30:54.250Z,26.73
2023-03-17T04:33:21.946Z,28.85
2023-03-17T04:35:49.273Z,25.92
2023-03-17T04:38:16.947Z,28.15
2023-03-17T04:40:44.222Z,25.17
2023-03-17T04:43:11.769Z,24.92
2023-03-17T04:45:39.039Z,34.40
2023-03-17T04:48:06.617Z,24.15
2023-03-17T04:50:34.514Z,34.17
2023-03-17T04:53:02.178Z,32.90
2023-03-17T04:55:29.407Z,32.38
2023-03-17T04:57:56.925Z,28.67
2023-03-17T05:00:24.403Z,34.67
2023-03-17T05:02:51.973Z,27.75
2023-03-17T05:05:19.192Z,30.83
2023-03-17T05:07:46.800Z,30.10
2023-03-17T05:10:14.092Z,31.75
2023-03-17T05:12:41.711Z,35.80
2023-03-17T05:15:10.106Z,28.33
2023-03-17T05:17:37.684Z,35.15
2023-03-17T05:20:05.799Z,33.08
2023-03-17T05:22:33.307Z,39.10
2023-03-17T05:25:00.571Z,36.28
2023-03-17T05:27:28.317Z,38.97
2023-03-17T05:29:55.550Z,37.55
2023-03-17T05:32:24.040Z,37.05
2023-03-17T05:34:52.144Z,39.78
2023-03-17T05:37:19.649Z,37.78
2023-03-17T05:39:47.034Z,41.45
2023-03-17T05:42:14.524Z,42.35
2023-03-17T05:44:41.752Z,38.92
2023-03-17T05:47:09.494Z,36.00
2023-03-17T05:49:37.046Z,41.42
2023-03-17T05:52:04.634Z,37.15
2023-03-17T05:54:31.877Z,36.97
2023-03-17T05:56:59.471Z,41.88
2023-03-17T05:59:26.750Z,40.85
2023-03-17T06:01:54.263Z,47.13
2023-03-17T06:04:21.972Z,52.72
2023-03-17T06:06:49.598Z,53.78
2023-03-17T06:09:16.797Z,50.28
2023-03-17T06:11:44.356Z,54.58
2023-03-17T06:14:12.163Z,47.75
2023-03-17T06:16:39.657Z,60.30
2023-03-17T06:19:06.971Z,52.95
2023-03-17T06:21:34.545Z,59.63
2023-03-17T06:24:02.021Z,53.08
2023-03-17T06:26:29.540Z,54.55
2023-03-17T06:28:57.562Z,48.60
2023-03-17T06:31:24.695Z,50.72
2023-03-17T06:33:52.255Z,49.83
2023-03-17T06:36:19.686Z,49.20
2023-03-17T06:38:47.398Z,44.72
2023-03-17T06:41:15.125Z,42.10
2023-03-17T06:43:42.642Z,44.30
2023-03-17T06:46:09.922Z,42.35
2023-03-17T06:48:38.330Z,42.90
2023-03-17T06:51:06.392Z,45.47
2023-03-17T06:53:33.953Z,43.30
2023-03-17T06:56:01.207Z,43.15
2023-03-17T06:58:28.749Z,39.42
2023-03-17T07:00:56.186Z,42.45
2023-03-17T07:03:24.250Z,41.15
2023-03-17T07:05:52.158Z,37.60
2023-03-17T07:08:19.819Z,34.47
2023-03-17T07:10:47.010Z,39.70
2023-03-17T07:13:14.757Z,42.97
2023-03-17T07:15:42.822Z,43.92
2023-03-17T07:18:11.222Z,43.17
2023-03-17T07:20:38.527Z,46.60
2023-03-17T07:23:06.287Z,45.30
2023-03-17T07:25:36.817Z,45.38
2023-03-17T07:28:04.901Z,44.90
2023-03-17T07:30:32.679Z,43.00
2023-03-17T07:33:00.295Z,39.38
2023-03-17T07:35:29.091Z,41.85
2023-03-17T07:37:57.269Z,42.30
2023-03-17T07:40:24.865Z,42.70
2023-03-17T07:42:52.719Z,43.00
2023-03-17T07:45:20.022Z,46.67
2023-03-17T07:47:47.511Z,43.45
2023-03-17T07:50:15.522Z,43.17
2023-03-17T07:52:43.021Z,42.25
2023-03-17T07:55:13.071Z,46.85
2023-03-17T07:57:41.638Z,41.75
2023-03-17T08:00:09.951Z,45.05
2023-03-17T08:02:41.181Z,51.17
2023-03-17T08:05:09.441Z,48.20
2023-03-17T08:07:39.677Z,43.35
2023-03-17T08:10:08.214Z,36.42
2023-03-17T08:12:35.986Z,47.22
2023-03-17T08:15:03.654Z,45.50
2023-03-17T08:17:31.916Z,38.95
2023-03-17T08:19:59.298Z,38.30
2023-03-17T08:22:27.848Z,37.25
2023-03-17T08:24:55.729Z,35.83
2023-03-17T08:27:23.445Z,34.08
2023-03-17T08:29:51.226Z,38.58
2023-03-17T08:32:19.006Z,29.13
2023-03-17T08:34:48.069Z,29.67
2023-03-17T08:37:15.575Z,33.58
2023-03-17T08:39:42.760Z,28.55
2023-03-17T08:42:10.294Z,29.00
2023-03-17T08:44:37.825Z,30.52
2023-03-17T08:47:05.579Z,33.17
2023-03-17T08:49:35.006Z,27.80
2023-03-17T08:52:03.542Z,32.53
2023-03-17T08:54:30.849Z,26.15
2023-03-17T08:56:58.583Z,29.83
2023-03-17T08:59:25.815Z,28.10
2023-03-17T09:01:53.371Z,29.35
2023-03-17T09:04:21.650Z,24.98
2023-03-17T09:07:02.401Z,29.23
2023-03-17T09:09:31.245Z,28.85
2023-03-17T09:11:58.905Z,27.48
2023-03-17T09:14:26.287Z,27.80
2023-03-17T09:16:54.609Z,25.27
2023-03-17T09:19:21.986Z,24.58
2023-03-17T09:21:50.412Z,25.58
2023-03-17T09:24:18.916Z,23.83
2023-03-17T09:26:46.539Z,24.90
2023-03-17T09:29:13.746Z,26.42
2023-03-17T09:31:43.092Z,25.25
2023-03-17T09:34:11.135Z,32.55
2023-03-17T09:36:38.926Z,27.85
2023-03-17T09:39:06.717Z,24.48
2023-03-17T09:42:04.641Z,24.98
2023-03-17T09:44:53.559Z,25.45
2023-03-17T09:47:41.641Z,20.83
2023-03-17T09:50:29.446Z,29.27
2023-03-17T09:52:58.551Z,29.27
2023-03-17T09:55:31.781Z,27.92
2023-03-17T09:58:01.079Z,28.30
2023-03-17T10:00:29.801Z,29.75
2023-03-17T10:02:58.630Z,28.48
2023-03-17T10:05:34.836Z,27.95
2023-03-17T10:08:31.332Z,21.92
2023-03-17T10:11:10.977Z,25.30
2023-03-17T10:14:00.875Z,25.20
2023-03-17T10:16:41.856Z,23.98
2023-03-17T10:19:28.525Z,21.77
2023-03-17T10:22:10.487Z,21.40
2023-03-17T10:24:43.663Z,22.90
2023-03-17T10:27:12.529Z,21.40
2023-03-17T10:29:40.902Z,22.15
2023-03-17T10:32:12.667Z,19.95
2023-03-17T10:34:42.501Z,22.10
2023-03-17T10:37:17.681Z,26.13
2023-03-17T10:39:51.895Z,19.55
2023-03-17T10:42:32.325Z,21.75
2023-03-17T10:45:17.710Z,19.58
2023-03-17T10:47:49.104Z,20.08
2023-03-17T10:50:32.510Z,18.55
2023-03-17T10:53:10.922Z,19.00
2023-03-17T10:55:38.433Z,18.92
2023-03-17T10:58:07.968Z,20.60
2023-03-17T11:00:38.653Z,19.70
2023-03-17T11:03:23.039Z,19.02
2023-03-17T11:06:00.609Z,16.85
2023-03-17T11:08:33.063Z,18.60
2023-03-17T11:11:00.700Z,17.25
2023-03-17T11:13:31.141Z,16.13
2023-03-17T11:16:23.534Z,13.48
2023-03-17T11:21:31.876Z,17.40
2023-03-17T11:24:28.527Z,19.10
2023-03-17T11:27:00.572Z,17.55
2023-03-17T11:29:58.369Z,18.90
2023-03-17T11:32:47.887Z,17.75
2023-03-17T11:35:39.908Z,14.18
2023-03-17T11:38:19.823Z,15.32
2023-03-17T11:41:11.062Z,17.33
2023-03-17T11:44:02.237Z,10.85
2023-03-17T11:47:09.105Z,16.77
2023-03-17T11:49:38.815Z,14.27
2023-03-17T11:52:12.772Z,14.52
2023-03-17T11:55:09.666Z,13.43
2023-03-17T11:57:58.688Z,17.25
2023-03-17T12:00:33.813Z,22.63
2023-03-17T12:03:20.882Z,18.17
2023-03-17T12:05:54.901Z,20.25
2023-03-17T12:08:25.071Z,20.00
2023-03-17T12:10:55.667Z,15.00
2023-03-17T12:13:34.579Z,17.42
2023-03-17T12:16:33.809Z,16.52
2023-03-17T12:19:16.957Z,18.73
2023-03-17T12:21:54.369Z,18.60
2023-03-17T12:24:34.545Z,18.60
2023-03-17T12:27:30.353Z,15.60
2023-03-17T12:30:07.964Z,17.77
2023-03-17T12:32:56.126Z,19.85
2023-03-17T12:35:34.962Z,19.15
2023-03-17T12:38:12.277Z,21.58
2023-03-17T12:41:05.753Z,20.33
2023-03-17T12:44:20.693Z,20.05
2023-03-17T12:47:25.817Z,20.55
2023-03-17T12:50:05.969Z,21.80
2023-03-17T12:52:39.253Z,21.58
2023-03-17T12:55:13.646Z,15.82
2023-03-17T12:57:46.514Z,20.98
2023-03-17T13:00:28.464Z,17.85
2023-03-17T13:03:30.715Z,18.52
2023-03-17T13:06:01.495Z,19.73
2023-03-17T13:08:33.304Z,21.25
2023-03-17T13:11:27.365Z,16.70
2023-03-17T13:13:54.626Z,18.58
2023-03-17T13:16:37.764Z,19.08
2023-03-17T13:19:15.693Z,17.17
2023-03-17T13:22:17.976Z,18.52
2023-03-17T13:24:53.610Z,15.57
2023-03-17T13:27:30.245Z,16.55
2023-03-17T13:30:22.093Z,16.85
2023-03-17T13:32:57.564Z,20.27
2023-03-17T13:35:57.237Z,23.30
2023-03-17T13:38:48.556Z,19.85
2023-03-17T13:41:49.468Z,19.55
2023-03-17T13:44:56.953Z,15.25
2023-03-17T13:47:27.127Z,19.75
2023-03-17T13:50:00.878Z,17.23
2023-03-17T13:52:33.688Z,17.65
2023-03-17T13:55:18.505Z,19.05
2023-03-17T13:58:12.208Z,15.70
2023-03-17T14:00:44.323Z,14.73
2023-03-17T14:03:17.649Z,21.90
2023-03-17T14:05:50.993Z,15.40
2023-03-17T14:08:27.524Z,17.30
2023-03-17T14:10:59.434Z,14.80
2023-03-17T14:13:57.156Z,19.33
2023-03-17T14:16:29.847Z,23.92
2023-03-17T14:19:20.799Z,16.95
2023-03-17T14:21:48.488Z,17.83
2023-03-17T14:24:30.143Z,15.30
2023-03-17T14:26:57.730Z,18.77
2023-03-17T14:29:32.006Z,14.65
2023-03-17T14:32:15.172Z,19.10
2023-03-17T14:34:44.382Z,16.75
2023-03-17T14:37:12.842Z,14.85
2023-03-17T14:39:49.066Z,16.10
2023-03-17T14:42:20.093Z,15.48
2023-03-17T14:44:47.549Z,15.27
2023-03-17T14:47:23.005Z,12.63
2023-03-17T14:49:53.480Z,15.57
2023-03-17T14:52:27.968Z,15.27
2023-03-17T14:54:59.340Z,17.83
2023-03-17T14:57:31.491Z,14.57
2023-03-17T15:00:23.029Z,16.80
2023-03-17T15:02:58.860Z,18.67
2023-03-17T15:05:41.967Z,16.25
2023-03-17T15:08:48.267Z,18.58
2023-03-17T15:11:20.157Z,17.58
2023-03-17T15:13:48.754Z,20.23
2023-03-17T15:16:27.863Z,15.15
2023-03-17T15:19:06.109Z,18.23
2023-03-17T15:21:38.834Z,15.00
2023-03-17T15:24:23.205Z,15.27
2023-03-17T15:26:50.721Z,15.50
2023-03-17T15:29:18.545Z,14.30
2023-03-17T15:31:45.857Z,14.25
2023-03-17T15:34:15.474Z,13.43
2023-03-17T15:36:47.428Z,16.85
2023-03-17T15:39:15.065Z,14.60
2023-03-17T15:41:42.395Z,13.45
2023-03-17T15:44:09.912Z,16.73
2023-03-17T15:46:37.415Z,16.00
2023-03-17T15:49:10.789Z,15.02
2023-03-17T15:51:38.451Z,14.20
2023-03-17T15:54:06.012Z,15.48
2023-03-17T15:56:34.597Z,15.45
2023-03-17T15:59:02.881Z,14.45
2023-03-17T16:01:30.205Z,12.68
2023-03-17T16:03:57.744Z,14.93
2023-03-17T16:06:25.003Z,20.38
2023-03-17T16:08:52.564Z,16.05
2023-03-17T16:11:28.272Z,16.23
2023-03-17T16:13:57.363Z,11.23
2023-03-17T16:16:45.927Z,15.55
2023-03-17T16:19:20.862Z,12.93
2023-03-17T16:21:49.111Z,19.15
2023-03-17T16:24:22.908Z,18.73
2023-03-17T16:26:50.991Z,14.10
2023-03-17T16:29:21.021Z,16.38
2023-03-17T16:31:51.015Z,15.52
2023-03-17T16:34:21.474Z,13.88
2023-03-17T16:36:50.479Z,18.25
2023-03-17T16:39:22.566Z,15.68
2023-03-17T16:41:50.844Z,16.55
2023-03-17T16:44:20.600Z,15.57
2023-03-17T16:46:49.336Z,14.85
2023-03-17T16:49:19.405Z,15.75
2023-03-17T16:51:48.755Z,15.02
2023-03-17T16:54:17.184Z,19.55
2023-03-17T16:56:45.254Z,16.48
2023-03-17T16:59:19.969Z,13.30
2023-03-17T17:01:47.238Z,19.00
2023-03-17T17:04:14.841Z,16.77
2023-03-17T17:06:42.070Z,16.60
2023-03-17T17:09:09.629Z,18.05
2023-03-17T17:11:36.884Z,13.60
2023-03-17T17:14:04.449Z,15.38
2023-03-17T17:16:35.699Z,15.93
2023-03-17T17:19:04.394Z,17.00
2023-03-17T17:21:33.020Z,16.73
2023-03-17T17:24:00.607Z,16.80
2023-03-17T17:26:27.854Z,20.95
2023-03-17T17:28:55.440Z,16.35
2023-03-17T17:31:22.776Z,17.92
2023-03-17T17:33:50.476Z,18.80
2023-03-17T17:36:18.179Z,17.23
2023-03-17T17:38:45.931Z,18.50
2023-03-17T17:41:14.339Z,20.70
2023-03-17T17:43:42.265Z,17.67
2023-03-17T17:46:12.580Z,22.20
2023-03-17T17:48:40.445Z,19.52
2023-03-17T17:51:07.707Z,19.98
2023-03-17T17:53:35.372Z,19.60
2023-03-17T17:56:02.789Z,20.42
2023-03-17T17:58:30.648Z,21.88
2023-03-17T18:00:58.276Z,17.38
2023-03-17T18:03:26.832Z,21.63
2023-03-17T18:05:56.278Z,15.40
2023-03-17T18:08:25.619Z,15.50
2023-03-17T18:10:53.411Z,18.38
2023-03-17T18:13:21.067Z,19.17
2023-03-17T18:15:48.390Z,17.27
2023-03-17T18:18:16.115Z,15.45
2023-03-17T18:20:43.344Z,18.10
2023-03-17T18:23:11.267Z,17.15
2023-03-17T18:25:38.491Z,19.60
2023-03-17T18:28:06.407Z,17.52
2023-03-17T18:30:35.314Z,19.52
2023-03-17T18:33:23.206Z,17.95
2023-03-17T18:35:52.245Z,20.17
2023-03-17T18:38:19.873Z,19.42
2023-03-17T18:40:47.116Z,20.85
2023-03-17T18:43:14.700Z,17.80
2023-03-17T18:45:42.001Z,16.48
2023-03-17T18:48:09.629Z,18.35
2023-03-17T18:50:37.193Z,18.25
2023-03-17T18:53:04.985Z,16.92
2023-03-17T18:55:32.461Z,17.23
2023-03-17T18:58:00.080Z,22.95
2023-03-17T19:00:27.428Z,17.75
2023-03-17T19:02:55.087Z,17.33
2023-03-17T19:05:22.464Z,16.35
2023-03-17T19:07:50.072Z,22.75
2023-03-17T19:10:17.945Z,17.52
2023-03-17T19:12:47.266Z,19.80
2023-03-17T19:15:14.726Z,23.63
2023-03-17T19:17:42.408Z,19.90
2023-03-17T19:20:10.904Z,22.25
2023-03-17T19:22:38.454Z,20.88
2023-03-17T19:25:06.389Z,20.55
2023-03-17T19:27:33.941Z,27.17
2023-03-17T19:30:01.182Z,23.83
2023-03-17T19:32:28.831Z,17.00
2023-03-17T19:34:56.210Z,19.30
2023-03-17T19:37:23.749Z,21.15
2023-03-17T19:39:51.135Z,27.08
2023-03-17T19:42:18.737Z,23.60
2023-03-17T19:44:46.053Z,21.33
2023-03-17T19:47:13.618Z,20.58
2023-03-17T19:49:41.960Z,21.77
2023-03-17T19:52:10.406Z,21.17
2023-03-17T19:54:45.913Z,22.55
2023-03-17T19:57:14.108Z,19.65
2023-03-17T19:59:41.520Z,23.27
2023-03-17T20:02:13.180Z,20.60
2023-03-17T20:04:40.931Z,20.35
2023-03-17T20:07:09.581Z,19.52
2023-03-17T20:09:38.074Z,19.02
2023-03-17T20:12:06.010Z,25.33
2023-03-17T20:14:33.269Z,22.95
2023-03-17T20:17:00.969Z,21.50
2023-03-17T20:19:29.252Z,26.02
2023-03-17T20:21:58.594Z,26.33
2023-03-17T20:24:27.176Z,24.20
2023-03-17T20:26:57.354Z,26.08
2023-03-17T20:29:25.874Z,25.15
2023-03-17T20:31:53.700Z,20.52
2023-03-17T20:34:21.534Z,25.38
2023-03-17T20:36:49.531Z,18.15
2023-03-17T20:39:19.975Z,21.00
2023-03-17T20:41:51.666Z,20.23
2023-03-17T20:44:19.834Z,23.55
2023-03-17T20:46:47.806Z,21.75
2023-03-17T20:49:15.884Z,23.10
2023-03-17T20:51:44.051Z,24.73
2023-03-17T20:54:11.445Z,21.98
2023-03-17T20:56:39.743Z,21.25
2023-03-17T20:59:09.692Z,24.25
2023-03-17T21:01:38.855Z,22.65
2023-03-17T21:04:09.121Z,23.15
2023-03-17T21:06:37.564Z,23.33
2023-03-17T21:09:06.057Z,20.05
2023-03-17T21:11:34.040Z,24.83
2023-03-17T21:14:03.467Z,27.52
2023-03-17T21:16:31.196Z,23.98
2023-03-17T21:18:58.966Z,25.38
2023-03-17T21:21:27.383Z,24.65
2023-03-17T21:23:55.064Z,21.67
2023-03-17T21:26:23.042Z,23.40
2023-03-17T21:28:50.572Z,22.05
2023-03-17T21:31:18.408Z,27.60
2023-03-17T21:33:48.651Z,29.85
2023-03-17T21:36:16.992Z,26.77
2023-03-17T21:38:44.231Z,24.65
2023-03-17T21:41:22.414Z,19.15
2023-03-17T21:43:50.619Z,23.08
2023-03-17T21:46:18.344Z,22.02
2023-03-17T21:48:45.582Z,21.30
2023-03-17T21:51:13.174Z,25.38
2023-03-17T21:53:40.437Z,22.83
2023-03-17T21:56:08.914Z,23.92
2023-03-17T21:58:36.697Z,22.42
2023-03-17T22:01:04.601Z,21.20
2023-03-17T22:03:32.445Z,22.40
2023-03-17T22:06:00.312Z,29.88
2023-03-17T22:08:27.880Z,27.13
2023-03-17T22:10:55.672Z,20.65
2023-03-17T22:13:22.952Z,22.38
2023-03-17T22:15:50.552Z,21.40
2023-03-17T22:18:18.047Z,19.95
2023-03-17T22:20:45.627Z,26.10
2023-03-17T22:23:13.131Z,23.48
2023-03-17T22:25:40.701Z,23.08
2023-03-17T22:28:08.700Z,17.25
2023-03-17T22:30:39.504Z,22.65
2023-03-17T22:33:07.705Z,22.98
2023-03-17T22:35:36.647Z,18.90
2023-03-17T22:38:05.138Z,26.90
2023-03-17T22:40:33.931Z,19.15
2023-03-17T22:43:02.249Z,20.00
2023-03-17T22:45:29.863Z,22.58
2023-03-17T22:47:57.367Z,20.92
2023-03-17T22:50:25.472Z,20.13
2023-03-17T22:52:52.734Z,25.63
2023-03-17T22:55:20.238Z,22.05
2023-03-17T22:57:47.629Z,21.05
2023-03-17T23:00:17.195Z,24.05
2023-03-17T23:02:46.533Z,24.00
2023-03-17T23:05:14.655Z,22.70
2023-03-17T23:07:50.255Z,26.77
2023-03-17T23:10:25.388Z,20.73
2023-03-17T23:12:53.180Z,19.73
2023-03-17T23:15:21.531Z,22.83
2023-03-17T23:17:48.852Z,18.65
2023-03-17T23:20:16.865Z,22.17
2023-03-17T23:22:44.123Z,20.70
2023-03-17T23:25:13.651Z,18.48
2023-03-17T23:27:41.462Z,22.48
2023-03-17T23:30:11.719Z,18.33
2023-03-17T23:32:40.831Z,20.55
2023-03-17T23:35:09.500Z,15.30
2023-03-17T23:37:37.423Z,22.63
2023-03-17T23:40:06.528Z,30.33
2023-03-17T23:42:33.929Z,23.38
2023-03-17T23:45:02.629Z,19.83
2023-03-17T23:47:30.668Z,19.63
2023-03-17T23:49:58.219Z,18.15
2023-03-17T23:52:25.780Z,19.75
2023-03-17T23:54:54.082Z,23.45
2023-03-17T23:57:21.737Z,20.05
2023-03-17T23:59:49.435Z,24.92
